Latest Weather Observations for Mornington Island Airport

IDQ60801

Issued at 12:02 pm EST Tuesday 21 November 2017 (issued every 30 minutes, with the page automatically refreshed every 10 minutes)

About weather observations | Map of weather stations | Latest weather observations for QLD | Other Formats
Station Details ID: 029182 Name: MORNINGTON ISLAND AIRPORT Lat: -16.66 Lon: 139.17 Height: 9.52 m
Data from the previous 72 hours. | See also: Recent months at Mornington Island Airport
Date/Time
EST
Temp
°C
App
Temp
°C
Dew
Point
°C
Rel
Hum
%
Delta-T
°C
Wind Press
QNH
hPa
Press
MSL
hPa
Rain since
9am
mm
Dir  Spd
km/h
Gust
km/h
Spd
kts
Gust
kts
21/12:00pm 23.9 23.1 22.3 91 1.1 NE 30 43 16 23 1010.6 1010.5 5.6
21/11:30am 24.4 24.7 23.0 92 0.9 NE 26 44 14 24 1011.1 1011.0 5.6
21/11:00am 24.5 27.1 23.3 93 0.8 ENE 15 28 8 15 1010.8 1010.7 5.0
21/10:30am 25.8 26.3 21.9 79 2.6 ENE 22 41 12 22 1011.0 1010.9 0.2
21/10:21am 26.7 27.4 21.2 72 3.6 N 19 41 10 22 1010.4 1010.3 0.0
21/10:00am 30.3 33.8 25.4 75 3.5 NW 17 20 9 11 1010.1 1010.0 0.0
21/09:30am 30.3 33.3 25.6 76 3.3 NW 20 24 11 13 1009.9 1009.8 0.0
21/09:00am 30.6 32.6 25.2 73 3.8 NW 24 30 13 16 1009.8 1009.7 0.0
21/08:30am 30.5 33.5 25.6 75 3.5 NW 20 28 11 15 1009.3 1009.2 0.0
21/08:00am 29.9 32.8 25.4 77 3.2 NNW 20 26 11 14 1009.0 1008.9 0.0
21/07:30am 29.7 32.5 25.2 77 3.2 NNW 20 26 11 14 1008.7 1008.6 0.0
21/07:00am 29.6 32.9 25.1 77 3.2 NNW 17 24 9 13 1008.5 1008.4 0.0
21/06:30am 29.2 32.4 25.6 81 2.5 NW 19 22 10 12 1008.2 1008.1 0.0
21/06:00am 29.1 32.1 25.5 81 2.5 NNW 20 26 11 14 1007.9 1007.8 0.0
21/05:30am 29.2 31.5 25.6 81 2.5 NW 24 30 13 16 1007.6 1007.5 0.0
21/05:00am 29.2 31.0 25.4 80 2.7 NW 26 32 14 17 1007.3 1007.2 0.0
21/04:30am 29.1 31.8 25.7 82 2.4 NW 22 26 12 14 1007.4 1007.3 0.0
21/04:00am 29.2 32.1 25.4 80 2.7 NNW 20 26 11 14 1007.5 1007.4 0.0
21/03:30am 29.2 32.0 25.2 79 2.8 NNW 20 26 11 14 1007.3 1007.2 0.0
21/03:00am 29.1 31.9 25.3 80 2.7 NNW 20 26 11 14 1007.1 1007.0 0.0
21/02:30am 29.0 31.8 25.2 80 2.7 NNW 20 32 11 17 1006.7 1006.6 0.0
21/02:00am 29.0 31.3 25.6 82 2.4 NNW 24 30 13 16 1006.7 1006.6 0.0
21/01:30am 29.1 31.7 25.5 81 2.5 NNW 22 28 12 15 1007.3 1007.2 0.0
21/01:00am 29.1 32.1 25.5 81 2.5 NNW 20 24 11 13 1008.0 1007.9 0.0
21/12:30am 29.0 32.5 25.4 81 2.5 NNW 17 20 9 11 1008.2 1008.1 0.0
21/12:00am 29.1 32.6 25.5 81 2.5 NNW 17 22 9 12 1008.3 1008.2 0.0
 
Date/Time
EST
Temp
°C
App
Temp
°C
Dew
Point
°C
Rel
Hum
%
Delta-T
°C
Wind Press
QNH
hPa
Press
MSL
hPa
Rain since
9am
mm
Dir  Spd
km/h
Gust
km/h
Spd
kts
Gust
kts
20/11:30pm 28.7 33.3 25.3 82 2.4 N 11 15 6 8 1008.5 1008.4 0.0
20/11:00pm 29.0 33.5 25.2 80 2.7 ENE 11 17 6 9 1009.2 1009.1 0.0
20/10:30pm 29.2 34.1 25.2 79 2.8 NE 9 11 5 6 1009.4 1009.3 0.0
20/10:00pm 29.7 33.4 25.2 77 3.2 ENE 15 24 8 13 1009.6 1009.5 0.0
20/09:30pm 29.4 33.1 25.2 78 3.0 N 15 19 8 10 1008.6 1008.5 0.0
20/09:00pm 29.4 33.9 25.2 78 3.0 N 11 17 6 9 1008.8 1008.7 0.0
20/08:30pm 29.4 32.6 24.9 77 3.2 N 17 22 9 12 1008.1 1008.0 0.0
20/08:00pm 29.6 32.2 24.9 76 3.3 NNW 20 28 11 15 1007.4 1007.3 0.0
20/07:30pm 29.7 32.5 25.2 77 3.2 NNW 20 26 11 14 1007.6 1007.5 0.0
20/07:00pm 29.8 32.0 24.9 75 3.4 NNW 22 28 12 15 1007.3 1007.2 0.0
20/06:30pm 30.3 31.8 24.9 73 3.8 NNW 26 32 14 17 1007.2 1007.1 0.0
20/06:00pm 30.5 32.5 25.8 76 3.3 NNW 26 32 14 17 1006.7 1006.6 0.0
20/05:30pm 31.1 32.5 25.4 71 4.0 NNW 28 33 15 18 1006.2 1006.1 0.0
20/05:00pm 31.3 32.7 25.4 71 4.2 NNW 28 33 15 18 1006.3 1006.2 0.0
20/04:30pm 31.4 33.0 25.7 71 4.1 NNW 28 32 15 17 1006.4 1006.3 0.0
20/04:00pm 31.6 33.2 25.2 69 4.5 NNW 26 32 14 17 1007.1 1007.0 0.0
20/03:30pm 31.9 33.7 25.5 69 4.5 NNW 26 32 14 17 1007.2 1007.1 0.0
20/03:00pm 32.5 34.9 25.8 68 4.8 NNW 24 30 13 16 1007.6 1007.5 0.0
20/02:30pm 32.0 34.3 25.6 69 4.5 NW 24 30 13 16 1007.9 1007.8 0.0
20/02:00pm 32.4 35.7 26.0 69 4.6 NW 20 26 11 14 1008.5 1008.4 0.0
20/01:30pm 32.0 35.0 25.6 69 4.5 NNW 20 26 11 14 1009.1 1009.0 0.0
20/01:00pm 32.1 34.8 26.2 71 4.2 NW 24 30 13 16 1009.4 1009.3 0.0
20/12:30pm 32.0 34.2 26.1 71 4.2 NNW 26 30 14 16 1009.5 1009.4 0.0
20/12:00pm 32.1 34.1 25.7 69 4.6 NNW 26 32 14 17 1009.8 1009.7 0.0
20/11:30am 31.8 33.6 25.4 69 4.5 NNW 26 32 14 17 1010.0 1009.9 0.0
20/11:00am 31.6 33.8 25.5 70 4.3 NNW 24 32 13 17 1010.1 1010.0 0.0
20/10:30am 32.1 34.8 24.7 65 5.2 N 19 30 10 16 1010.4 1010.3 0.0
20/10:00am 30.7 33.7 24.6 70 4.3 NNW 17 22 9 12 1010.8 1010.7 0.0
20/09:30am 30.1 34.1 25.6 77 3.2 NNW 15 19 8 10 1010.7 1010.6 0.0
20/09:00am 30.9 34.8 25.5 73 3.8 NNW 15 19 8 10 1010.6 1010.5 0.0
20/08:30am 30.5 34.5 25.6 75 3.5 NW 15 19 8 10 1010.6 1010.5 0.0
20/08:00am 30.2 33.6 25.3 75 3.5 NW 17 20 9 11 1010.1 1010.0 0.0
20/07:30am 29.8 33.2 25.3 77 3.2 NW 17 22 9 12 1009.8 1009.7 0.0
20/07:00am 29.4 32.1 25.6 80 2.7 WNW 22 28 12 15 1009.0 1008.9 0.0
20/06:30am 28.9 31.4 25.9 84 2.1 WNW 24 32 13 17 1008.6 1008.5 0.0
20/06:00am 28.6 31.0 25.8 85 2.0 WNW 24 32 13 17 1008.1 1008.0 0.0
20/05:30am 28.6 30.5 25.6 84 2.1 NW 26 35 14 19 1007.8 1007.7 0.0
20/05:00am 28.6 30.1 25.6 84 2.1 NW 28 32 15 17 1007.6 1007.5 0.0
20/04:30am 28.7 31.2 25.9 85 2.0 NW 24 30 13 16 1007.5 1007.4 0.0
20/04:00am 28.6 30.9 25.6 84 2.1 NW 24 32 13 17 1007.3 1007.2 0.0
20/03:30am 28.7 31.0 25.7 84 2.1 NW 24 32 13 17 1007.3 1007.2 0.0
20/03:00am 28.7 30.8 25.9 85 2.0 NW 26 32 14 17 1007.3 1007.2 0.0
20/02:30am 28.7 30.8 25.9 85 2.0 NW 26 32 14 17 1007.6 1007.5 0.0
20/02:00am 28.7 30.9 25.5 83 2.3 NNW 24 30 13 16 1008.0 1007.9 0.0
20/01:30am 28.7 31.4 25.7 84 2.1 NNW 22 30 12 16 1008.3 1008.2 0.0
20/01:00am 28.6 31.6 25.6 84 2.1 NNW 20 30 11 16 1008.2 1008.1 0.0
20/12:30am 28.7 31.5 25.3 82 2.4 NNW 20 28 11 15 1008.4 1008.3 0.0
20/12:00am 28.8 32.0 25.6 83 2.3 NNW 19 26 10 14 1008.6 1008.5 0.0
 
Date/Time
EST
Temp
°C
App
Temp
°C
Dew
Point
°C
Rel
Hum
%
Delta-T
°C
Wind Press
QNH
hPa
Press
MSL
hPa
Rain since
9am
mm
Dir  Spd
km/h
Gust
km/h
Spd
kts
Gust
kts
19/11:30pm 28.9 31.7 25.3 81 2.5 NNW 20 28 11 15 1008.6 1008.5 0.0
19/11:00pm 28.9 31.4 25.3 81 2.5 NNW 22 28 12 15 1008.5 1008.4 0.0
19/10:30pm 29.0 31.8 25.8 83 2.3 NNW 22 30 12 16 1008.5 1008.4 0.0
19/10:00pm 29.1 32.1 25.5 81 2.5 NNW 20 30 11 16 1008.5 1008.4 0.0
19/09:30pm 29.1 32.1 25.5 81 2.5 NNW 20 26 11 14 1008.1 1008.0 0.0
19/09:00pm 29.2 32.0 25.2 79 2.8 NNW 20 28 11 15 1007.9 1007.8 0.0
19/08:30pm 29.3 32.7 25.3 79 2.8 NNW 17 26 9 14 1007.8 1007.7 0.0
19/08:00pm 29.3 32.3 25.3 79 2.8 NNW 19 24 10 13 1007.6 1007.5 0.0
19/07:30pm 29.5 32.9 25.3 78 3.0 NNW 17 24 9 13 1007.4 1007.3 0.0
19/07:00pm 29.7 32.7 25.2 77 3.2 N 19 20 10 11 1007.2 1007.1 0.0
19/06:30pm 30.1 32.9 24.9 73 3.6 NNW 19 24 10 13 1007.1 1007.0 0.0
19/06:00pm 30.7 34.0 25.1 72 4.0 N 17 24 9 13 1007.1 1007.0 0.0
19/05:30pm 31.2 33.4 24.8 69 4.5 N 22 28 12 15 1006.9 1006.8 0.0
19/05:00pm 31.0 33.0 24.6 68 4.5 NNW 22 32 12 17 1007.1 1007.0 0.0
19/04:30pm 31.3 33.4 24.7 68 4.6 NNW 22 30 12 16 1007.2 1007.1 0.0
19/04:00pm 31.8 34.5 24.7 66 5.0 NNW 19 30 10 16 1007.5 1007.4 0.0
19/03:30pm 31.3 34.2 24.4 66 4.8 N 17 26 9 14 1008.0 1007.9 0.0
19/03:00pm 32.2 34.7 24.8 65 5.2 NW 20 28 11 15 1008.2 1008.1 0.0
19/02:30pm 32.6 35.0 24.6 62 5.6 NW 20 24 11 13 1008.5 1008.4 0.0
19/02:00pm 31.4 34.2 25.3 70 4.3 NW 20 30 11 16 1008.7 1008.6 0.0
19/01:30pm 32.2 34.1 25.0 65 5.1 NW 24 30 13 16 1008.9 1008.8 0.0
19/01:00pm 31.7 34.0 25.1 68 4.7 NW 22 28 12 15 1009.2 1009.1 0.0
19/12:30pm 31.5 34.1 24.9 68 4.6 NW 20 28 11 15 1009.7 1009.6 0.0
19/12:00pm 31.0 34.5 26.0 74 3.6 WNW 19 22 10 12 1009.9 1009.8 0.0
19/11:30am 30.6 34.4 25.9 76 3.3 WNW 17 20 9 11 1010.2 1010.1 0.0
19/11:00am 30.2 34.1 25.5 76 3.3 W 15 17 8 9 1010.5 1010.4 0.0
19/10:30am 29.9 34.1 25.9 79 2.8 WSW 15 19 8 10 1010.6 1010.5 0.0
19/10:00am 29.9 34.8 25.9 79 2.8 WSW 11 17 6 9 1010.6 1010.5 0.0
19/09:30am 29.8 34.4 26.0 80 2.7 WSW 13 17 7 9 1010.7 1010.6 0.0
19/09:00am 29.3 34.5 25.7 81 2.5 WSW 9 11 5 6 1010.7 1010.6 0.0
19/08:30am 28.8 33.9 25.6 83 2.3 WSW 9 11 5 6 1010.6 1010.5 0.0
19/08:00am 28.7 33.6 25.9 85 2.0 WSW 11 17 6 9 1010.2 1010.1 0.0
19/07:30am 28.4 33.5 26.2 88 1.6 WSW 11 17 6 9 1009.8 1009.7 0.0
19/07:00am 28.4 32.8 26.2 88 1.6 W 15 20 8 11 1009.1 1009.0 0.0
19/06:30am 28.3 31.5 25.5 85 2.0 W 19 24 10 13 1008.4 1008.3 0.0
19/06:00am 28.2 31.9 25.8 87 1.7 W 17 22 9 12 1008.2 1008.1 0.0
19/05:30am 28.1 31.2 25.7 87 1.7 WNW 20 28 11 15 1008.0 1007.9 0.0
19/05:00am 28.1 31.2 25.7 87 1.7 WNW 20 26 11 14 1007.9 1007.8 0.0
19/04:30am 27.9 30.6 25.7 88 1.6 WNW 22 26 12 14 1007.6 1007.5 0.0
19/04:00am 27.9 30.8 25.9 89 1.4 WNW 22 28 12 15 1007.1 1007.0 0.0
19/03:30am 28.1 31.3 25.9 88 1.6 WNW 20 24 11 13 1007.2 1007.1 0.0
19/03:00am 27.9 31.1 25.9 89 1.4 NW 20 24 11 13 1007.2 1007.1 0.0
19/02:30am 27.9 31.2 25.7 88 1.6 NW 19 24 10 13 1007.2 1007.1 0.0
19/02:00am 27.8 31.0 25.6 88 1.6 NNW 19 24 10 13 1007.1 1007.0 0.0
19/01:30am 28.0 31.0 25.6 87 1.7 NW 20 26 11 14 1007.4 1007.3 0.0
19/01:00am 28.1 31.1 25.5 86 1.8 NW 20 26 11 14 1007.8 1007.7 0.0
19/12:30am 28.2 30.7 25.4 85 2.0 NW 22 26 12 14 1008.3 1008.2 0.0
19/12:00am 28.3 30.9 25.5 85 2.0 NW 22 24 12 13 1008.5 1008.4 0.0
 
Date/Time
EST
Temp
°C
App
Temp
°C
Dew
Point
°C
Rel
Hum
%
Delta-T
°C
Wind Press
QNH
hPa
Press
MSL
hPa
Rain since
9am
mm
Dir  Spd
km/h
Gust
km/h
Spd
kts
Gust
kts
18/11:30pm 28.3 31.3 25.3 84 2.1 NW 19 20 10 11 1008.7 1008.6 0.0
18/11:00pm 28.5 31.8 25.1 82 2.4 NW 17 20 9 11 1008.7 1008.6 0.0
18/10:30pm 28.5 31.7 24.9 81 2.5 NNW 17 20 9 11 1008.7 1008.6 0.0
18/10:00pm 28.6 32.0 25.2 82 2.4 NW 17 20 9 11 1008.5 1008.4 0.0
18/09:30pm 28.5 32.3 25.3 83 2.2 NNW 15 19 8 10 1008.4 1008.3 0.0
18/09:00pm 28.3 33.1 25.1 83 2.2 N 9 13 5 7 1008.2 1008.1 0.0
18/08:30pm 28.4 33.3 25.2 83 2.2 N 9 13 5 7 1008.2 1008.1 0.0
18/08:00pm 28.5 32.8 24.9 81 2.5 N 11 15 6 8 1007.7 1007.6 0.0
18/07:30pm 28.9 32.7 24.7 78 2.9 N 13 19 7 10 1007.6 1007.5 0.0
18/07:00pm 29.5 33.1 24.4 74 3.6 N 13 17 7 9 1007.4 1007.3 0.0
18/06:30pm 30.1 33.8 24.5 72 3.9 N 13 17 7 9 1007.1 1007.0 0.0
18/06:00pm 30.7 33.6 24.4 69 4.4 NNW 17 20 9 11 1006.9 1006.8 0.0
18/05:30pm 31.1 33.5 24.2 66 4.8 N 19 24 10 13 1007.1 1007.0 0.0
18/05:00pm 32.3 35.0 25.1 65 5.1 NNW 20 26 11 14 1007.1 1007.0 0.0
18/04:30pm 31.9 34.2 24.5 65 5.2 NW 20 24 11 13 1007.2 1007.1 0.0
18/04:00pm 33.1 36.9 24.0 59 6.4 NNE 11 22 6 12 1007.2 1007.1 0.0
18/03:30pm 33.7 34.4 19.7 43 9.3 ESE 15 22 8 12 1007.7 1007.6 0.0
18/03:00pm 33.0 34.1 21.2 50 8.0 ESE 17 26 9 14 1007.9 1007.8 0.0
18/02:30pm 32.6 34.3 22.4 55 7.0 SSE 17 24 9 13 1008.6 1008.5 0.0
18/02:00pm 32.8 34.8 22.3 54 7.2 SE 15 22 8 12 1009.1 1009.0 0.0
18/01:30pm 32.5 33.1 21.4 52 7.5 SE 20 28 11 15 1009.6 1009.5 0.0
18/01:00pm 32.4 33.3 21.6 53 7.3 SE 19 24 10 13 1010.0 1009.9 0.0
18/12:30pm 32.3 32.6 21.5 53 7.3 SE 22 32 12 17 1010.3 1010.2 0.0

Other Formats:

Comma delimited format used in spreadsheet applications
http://www.bom.gov.au/fwo/IDQ60801/IDQ60801.94254.axf

JavaScript Object Notation format (JSON) in row-major order
http://www.bom.gov.au/fwo/IDQ60801/IDQ60801.94254.json